Newarthill, United Kingdom
Current Conditions -  °F | °C
As of 12:50 PM on Thursday 30 Oct 2014 (Local Time) from EGPF Reporting Station
Haze Haze  
Wind Chill: 50°   Ceiling: 200
Heat Index: 50°   Visibility: 2.2mi
Dew Point: 48°   Wind: 3mph
Humidity: 94%   Direction: NA
Pressure: 29.88"   Gusts: NA
Location:  55.82°N, 3.94°W
Report Text: EGPF 301250Z AUTO VRB03KT 3600 BR BKN002 OVC010 10/09 Q1012
Loading
Personal Weather Stations






























Interactive Weather Map
Tropical Storm Tracking
New forecast layout! Learn more

10-Day Weather Forecast

Advertisements
Track Severe Weather on mobile